Time;durP1;ratioP1;P1;durP2;ratioP2;P2;SDS_P1;SDS_P2;PMS_P1;PMS_P2;Temp;Humidity;BMP_temperature;BMP_pressure;BME280_temperature;BME280_humidity;BME280_pressure;Samples;Min_cycle;Max_cycle;Signal;HPM_P1;HPM_P2
2023/07/20 00:01:34;;;;;;;7.35;4.15;;;;;;;16.48;100.00;101242.19;5007013;28;20022;-60
2023/07/20 00:03:59;;;;;;;9.25;4.95;;;;;;;16.49;100.00;101238.75;5001264;28;20026;-60
2023/07/20 00:06:27;;;;;;;7.70;4.32;;;;;;;16.50;100.00;101244.81;4989738;28;20164;-60
2023/07/20 00:08:52;;;;;;;6.13;4.53;;;;;;;16.46;100.00;101243.03;4991346;28;20110;-59
2023/07/20 00:11:18;;;;;;;5.97;4.22;;;;;;;16.48;100.00;101242.19;4991151;28;20124;-60
2023/07/20 00:13:43;;;;;;;8.25;4.35;;;;;;;16.47;100.00;101244.78;5011044;28;20120;-60
2023/07/20 00:16:08;;;;;;;11.10;5.28;;;;;;;16.45;100.00;101255.25;5010140;28;20137;-60
2023/07/20 00:18:34;;;;;;;8.45;4.90;;;;;;;16.43;100.00;101243.88;5010455;28;20029;-60
2023/07/20 00:21:02;;;;;;;8.07;4.57;;;;;;;16.41;100.00;101246.47;5010697;28;20033;-60
2023/07/20 00:23:27;;;;;;;10.68;5.50;;;;;;;16.41;100.00;101235.13;5010632;28;20048;-61
2023/07/20 00:25:52;;;;;;;7.85;4.85;;;;;;;16.38;100.00;101241.19;5008792;28;20050;-60
2023/07/20 00:28:18;;;;;;;10.15;5.32;;;;;;;16.36;100.00;101247.25;4999693;28;20037;-60
2023/07/20 00:30:43;;;;;;;9.05;5.43;;;;;;;16.32;100.00;101247.22;5010280;28;20106;-60
2023/07/20 00:33:10;;;;;;;7.90;4.28;;;;;;;16.28;100.00;101244.53;5010403;28;20061;-60
2023/07/20 00:35:36;;;;;;;6.47;5.00;;;;;;;16.26;100.00;101246.25;5010078;28;20030;-59
2023/07/20 00:38:02;;;;;;;11.20;5.38;;;;;;;16.23;100.00;101251.41;5010450;28;20025;-60
2023/07/20 00:40:27;;;;;;;9.48;5.65;;;;;;;16.18;100.00;101239.19;5009550;28;20030;-60
2023/07/20 00:42:52;;;;;;;9.35;5.32;;;;;;;16.14;100.00;101242.59;5009923;28;20204;-59
2023/07/20 00:45:18;;;;;;;10.00;5.68;;;;;;;16.11;100.00;101245.16;5009892;28;20026;-59
2023/07/20 00:47:43;;;;;;;9.98;5.25;;;;;;;16.08;100.00;101243.38;5010792;28;20092;-59
2023/07/20 00:50:10;;;;;;;9.10;4.85;;;;;;;16.05;100.00;101247.66;5009536;28;20072;-60
2023/07/20 00:52:39;;;;;;;13.10;5.40;;;;;;;16.02;100.00;101242.41;4997053;28;20057;-60
2023/07/20 00:55:04;;;;;;;7.07;4.88;;;;;;;15.99;100.00;101248.44;5009663;28;20062;-59
2023/07/20 00:57:30;;;;;;;9.35;5.50;;;;;;;15.94;100.00;101244.84;5007141;28;20060;-60
2023/07/20 00:59:55;;;;;;;10.27;5.78;;;;;;;15.92;100.00;101251.81;5008938;28;20045;-59
2023/07/20 01:02:21;;;;;;;7.43;4.97;;;;;;;15.90;100.00;101250.91;5005195;28;20052;-60
2023/07/20 01:04:46;;;;;;;10.10;4.88;;;;;;;15.84;100.00;101249.94;5009337;28;20029;-60
2023/07/20 01:07:32;;;;;;;10.98;6.10;;;;;;;15.82;100.00;101250.75;5010157;28;20020;-59
2023/07/20 01:10:12;;;;;;;6.47;4.88;;;;;;;15.75;100.00;101243.66;4994002;28;20150;-60
2023/07/20 01:12:47;;;;;;;9.65;6.10;;;;;;;15.70;100.00;101251.44;4999222;28;20032;-60
2023/07/20 01:15:12;;;;;;;9.43;6.10;;;;;;;15.64;100.00;101251.31;4992552;28;20030;-60
2023/07/20 01:17:38;;;;;;;11.23;6.35;;;;;;;15.63;100.00;101255.69;4989508;28;20573;-60
2023/07/20 01:20:04;;;;;;;9.10;6.20;;;;;;;15.60;100.00;101261.72;4991102;28;20043;-59
2023/07/20 01:22:50;;;;;;;11.13;6.85;;;;;;;15.58;100.00;101267.75;4990814;28;20161;-61
2023/07/20 01:25:33;;;;;;;8.77;6.35;;;;;;;15.58;100.00;101258.19;4989827;28;20322;-59
2023/07/20 01:28:20;;;;;;;8.70;6.60;;;;;;;15.60;100.00;101255.59;5002841;28;20097;-60
2023/07/20 01:31:24;;;;;;;9.55;6.75;;;;;;;15.61;100.00;101253.03;5002722;28;20085;-60
2023/07/20 01:33:53;;;;;;;8.85;6.15;;;;;;;15.67;100.00;101262.69;5004190;28;20030;-59
2023/07/20 01:36:21;;;;;;;9.88;6.32;;;;;;;15.70;100.00;101256.66;5008623;28;20018;-61
2023/07/20 01:38:47;;;;;;;11.70;6.72;;;;;;;15.72;100.00;101260.19;4994499;28;20112;-59
2023/07/20 01:41:14;;;;;;;11.65;6.72;;;;;;;15.76;100.00;101261.97;4989843;28;20046;-60
2023/07/20 01:43:39;;;;;;;9.63;6.75;;;;;;;15.77;100.00;101258.53;4991866;28;20030;-60
2023/07/20 01:46:04;;;;;;;11.35;7.05;;;;;;;15.78;100.00;101259.38;5009495;28;20185;-59
2023/07/20 01:48:30;;;;;;;11.95;7.13;;;;;;;15.78;100.00;101257.66;5008525;28;20336;-60
2023/07/20 01:50:55;;;;;;;10.10;6.63;;;;;;;15.78;100.00;101265.50;5011288;28;20308;-59
2023/07/20 01:53:20;;;;;;;12.63;6.75;;;;;;;15.81;100.00;101262.94;5016070;28;20021;-59
2023/07/20 01:55:46;;;;;;;12.13;7.35;;;;;;;15.85;100.00;101269.97;5007119;28;20029;-59
2023/07/20 01:58:11;;;;;;;9.38;6.95;;;;;;;15.88;100.00;101268.28;4996738;28;20478;-60
2023/07/20 02:00:37;;;;;;;9.95;7.32;;;;;;;15.91;100.00;101265.72;5001922;28;20022;-60
2023/07/20 02:03:03;;;;;;;10.60;7.32;;;;;;;15.90;100.00;101272.66;5002087;28;20076;-60
2023/07/20 02:05:28;;;;;;;11.27;7.15;;;;;;;15.91;100.00;101278.78;5008508;28;20160;-61
2023/07/20 02:07:53;;;;;;;10.10;7.93;;;;;;;15.88;100.00;101270.88;5008392;28;20022;-61
2023/07/20 02:10:19;;;;;;;14.77;8.35;;;;;;;15.87;100.00;101274.34;5008494;28;20363;-60
2023/07/20 02:12:44;;;;;;;12.07;8.15;;;;;;;15.85;100.00;101271.72;5008668;28;20026;-59
2023/07/20 02:15:10;;;;;;;9.90;7.30;;;;;;;15.85;100.00;101275.22;5008778;28;20483;-60
2023/07/20 02:17:35;;;;;;;11.50;8.10;;;;;;;15.85;100.00;101276.94;5008271;28;20030;-59
2023/07/20 02:20:00;;;;;;;13.73;8.52;;;;;;;15.84;100.00;101275.19;5007876;28;20018;-59
2023/07/20 02:22:26;;;;;;;12.65;9.27;;;;;;;15.84;100.00;101278.69;5008188;28;20041;-60
2023/07/20 02:24:51;;;;;;;15.18;9.48;;;;;;;15.85;100.00;101277.81;5008158;28;20029;-60
2023/07/20 02:27:16;;;;;;;10.20;8.60;;;;;;;15.89;100.00;101285.69;4995493;28;20030;-60
2023/07/20 02:29:42;;;;;;;11.68;10.00;;;;;;;15.88;100.00;101284.84;4989665;28;20030;-59
2023/07/20 02:32:09;;;;;;;11.75;10.07;;;;;;;15.90;100.00;101287.47;5007784;28;20032;-60
2023/07/20 02:34:35;;;;;;;11.98;9.90;;;;;;;15.91;100.00;101287.50;5004487;28;20026;-60
2023/07/20 02:37:01;;;;;;;12.43;10.63;;;;;;;15.92;100.00;101289.25;5008169;28;20366;-60
2023/07/20 02:39:30;;;;;;;14.95;11.27;;;;;;;15.95;100.00;101293.66;5008171;28;20022;-59
2023/07/20 02:41:55;;;;;;;13.30;11.35;;;;;;;15.97;100.00;101291.97;4995418;28;20314;-60
2023/07/20 02:44:21;;;;;;;11.57;10.18;;;;;;;16.00;100.00;101293.75;4991462;28;20169;-60
2023/07/20 02:46:46;;;;;;;12.93;10.63;;;;;;;16.01;100.00;101292.94;5001226;28;20489;-60
2023/07/20 02:49:11;;;;;;;12.38;11.18;;;;;;;16.02;100.00;101300.78;5004075;28;20032;-59
2023/07/20 02:51:37;;;;;;;10.90;9.80;;;;;;;16.02;100.00;101306.00;5008060;28;20107;-60
2023/07/20 02:54:03;;;;;;;12.43;10.80;;;;;;;16.04;100.00;101300.81;4989760;28;20022;-60
2023/07/20 02:56:28;;;;;;;12.27;10.98;;;;;;;16.03;100.00;101304.28;4999961;28;20036;-60
2023/07/20 02:58:54;;;;;;;11.95;9.88;;;;;;;16.02;100.00;101306.00;5007398;28;20017;-61
2023/07/20 03:01:19;;;;;;;11.82;10.32;;;;;;;16.02;100.00;101300.78;5008213;28;20029;-59
2023/07/20 03:03:46;;;;;;;12.40;10.13;;;;;;;16.03;100.00;101309.53;5012446;28;20026;-60
2023/07/20 03:06:14;;;;;;;12.30;10.48;;;;;;;16.02;100.00;101316.47;5007686;28;20390;-60
2023/07/20 03:08:41;;;;;;;15.20;12.20;;;;;;;16.00;100.00;101312.94;5007367;28;20120;-60
2023/07/20 03:11:06;;;;;;;12.80;11.60;;;;;;;15.98;100.00;101314.63;5006978;28;20041;-60
2023/07/20 03:13:31;;;;;;;14.48;11.50;;;;;;;15.97;100.00;101323.31;5007357;28;20022;-60
2023/07/20 03:15:57;;;;;;;13.35;11.57;;;;;;;15.96;100.00;101321.53;5006911;28;20030;-59
2023/07/20 03:18:22;;;;;;;12.32;10.85;;;;;;;15.96;100.00;101324.16;5007383;28;20473;-59
2023/07/20 03:20:48;;;;;;;11.15;10.05;;;;;;;15.94;100.00;101331.97;5006285;28;20018;-59
2023/07/20 03:23:15;;;;;;;10.00;9.00;;;;;;;15.93;100.00;101331.94;5007265;28;20060;-61
2023/07/20 03:25:40;;;;;;;11.13;10.02;;;;;;;15.91;100.00;101328.44;5006374;28;20030;-60
2023/07/20 03:28:05;;;;;;;9.20;8.30;;;;;;;15.90;100.00;101340.59;5006801;28;20363;-59
2023/07/20 03:30:31;;;;;;;9.10;8.15;;;;;;;15.87;100.00;101329.22;5005556;28;20200;-60
2023/07/20 03:32:56;;;;;;;6.70;6.00;;;;;;;15.84;100.00;101336.19;5007066;28;20485;-60
2023/07/20 03:35:22;;;;;;;7.72;6.90;;;;;;;15.82;100.00;101340.47;5005502;28;20064;-59
2023/07/20 03:37:47;;;;;;;6.82;6.18;;;;;;;15.79;100.00;101331.72;5005426;28;20026;-60
2023/07/20 03:40:12;;;;;;;7.40;6.50;;;;;;;15.76;100.00;101335.13;5003705;28;20100;-61
2023/07/20 03:42:38;;;;;;;8.40;6.90;;;;;;;15.75;100.00;101338.59;4990627;28;20054;-58
2023/07/20 03:45:06;;;;;;;7.68;6.82;;;;;;;15.72;100.00;101341.19;4989781;28;20382;-60
2023/07/20 03:47:31;;;;;;;6.75;6.15;;;;;;;15.70;100.00;101335.03;4989930;28;20249;-60
2023/07/20 03:49:56;;;;;;;7.38;6.68;;;;;;;15.71;100.00;101339.41;4990991;28;20037;-60
2023/07/20 03:52:22;;;;;;;8.27;6.90;;;;;;;15.70;100.00;101340.25;5004653;28;20281;-59
2023/07/20 03:54:47;;;;;;;8.15;6.93;;;;;;;15.65;100.00;101336.69;4991784;28;20391;-61
2023/07/20 03:57:12;;;;;;;9.05;8.02;;;;;;;15.63;100.00;101343.59;4991892;28;20636;-59
2023/07/20 03:59:39;;;;;;;9.45;8.48;;;;;;;15.61;100.00;101352.28;4990671;28;20029;-61
2023/07/20 04:02:05;;;;;;;13.73;10.18;;;;;;;15.61;100.00;101352.28;5004856;28;20022;-59
2023/07/20 04:04:31;;;;;;;11.48;10.35;;;;;;;15.63;100.00;101354.94;4992001;28;20033;-60
2023/07/20 04:06:56;;;;;;;12.90;10.52;;;;;;;15.64;100.00;101345.34;4992049;28;20386;-59
2023/07/20 04:09:21;;;;;;;11.98;10.77;;;;;;;15.64;100.00;101359.31;4990362;28;20038;-60
2023/07/20 04:11:46;;;;;;;11.52;9.98;;;;;;;15.65;100.00;101360.19;4991249;28;20084;-60
2023/07/20 04:14:12;;;;;;;11.73;9.90;;;;;;;15.66;100.00;101359.34;4991869;28;20026;-60
2023/07/20 04:16:37;;;;;;;10.90;9.80;;;;;;;15.65;100.00;101354.97;4991889;28;20471;-59
2023/07/20 04:19:02;;;;;;;10.73;9.73;;;;;;;15.62;100.00;101358.38;4991831;28;20018;-60
2023/07/20 04:21:28;;;;;;;9.93;8.73;;;;;;;15.58;100.00;101352.22;5004667;28;20485;-60
2023/07/20 04:23:53;;;;;;;10.45;8.80;;;;;;;15.55;100.00;101356.50;4992193;28;20170;-60
2023/07/20 04:26:18;;;;;;;9.95;9.05;;;;;;;15.50;100.00;101364.25;4991522;28;20051;-60
2023/07/20 04:28:44;;;;;;;9.57;8.77;;;;;;;15.49;100.00;101363.38;4991300;28;20105;-60
2023/07/20 04:31:11;;;;;;;9.77;8.77;;;;;;;15.50;100.00;101359.03;4992060;28;20093;-60
2023/07/20 04:33:37;;;;;;;8.55;7.45;;;;;;;15.46;100.00;101355.47;4991839;28;20026;-60
2023/07/20 04:36:02;;;;;;;9.77;8.88;;;;;;;15.43;100.00;101358.03;5004207;28;20033;-60
2023/07/20 04:38:28;;;;;;;10.68;9.65;;;;;;;15.38;100.00;101364.03;4990452;28;20022;-60
2023/07/20 04:40:53;;;;;;;9.77;8.35;;;;;;;15.35;100.00;101365.72;5003271;28;20525;-60
2023/07/20 04:43:18;;;;;;;9.82;8.98;;;;;;;15.36;100.00;101372.69;4991436;28;20566;-60
2023/07/20 04:45:44;;;;;;;8.70;7.90;;;;;;;15.38;100.00;101369.25;5008661;28;20014;-60
2023/07/20 04:48:14;;;;;;;8.43;7.57;;;;;;;15.39;100.00;101373.59;4997199;28;20374;-60
2023/07/20 04:50:44;;;;;;;9.80;8.90;;;;;;;15.35;100.00;101373.53;5006806;28;20260;-60
2023/07/20 04:53:10;;;;;;;9.57;8.60;;;;;;;15.35;100.00;101360.50;5009953;28;20032;-60
2023/07/20 04:55:36;;;;;;;8.95;8.13;;;;;;;15.35;100.00;101360.50;5009300;28;20026;-60
2023/07/20 04:58:03;;;;;;;9.18;8.35;;;;;;;15.36;100.00;101362.25;5009703;28;20030;-60
2023/07/20 05:00:28;;;;;;;8.57;7.78;;;;;;;15.36;100.00;101362.25;5009775;28;20022;-59
2023/07/20 05:02:53;;;;;;;8.57;7.70;;;;;;;15.39;100.00;101360.53;5009391;28;20088;-61
2023/07/20 05:05:19;;;;;;;9.65;8.50;;;;;;;15.41;100.00;101359.75;5009334;28;20132;-60
2023/07/20 05:07:44;;;;;;;8.35;7.68;;;;;;;15.43;100.00;101360.66;5009670;28;20026;-60
2023/07/20 05:10:09;;;;;;;7.75;7.05;;;;;;;15.47;100.00;101361.59;5008543;28;20484;-59
2023/07/20 05:12:35;;;;;;;8.55;7.75;;;;;;;15.48;100.00;101355.50;5009326;28;20045;-61
2023/07/20 05:15:00;;;;;;;8.43;7.55;;;;;;;15.48;100.00;101353.78;5008135;28;20029;-60
2023/07/20 05:17:25;;;;;;;8.98;7.82;;;;;;;15.45;100.00;101348.47;5008970;28;20160;-60
2023/07/20 05:19:50;;;;;;;8.98;8.07;;;;;;;15.46;100.00;101352.88;5008830;28;20026;-60
2023/07/20 05:22:16;;;;;;;9.10;8.35;;;;;;;15.51;100.00;101352.09;5008918;28;20430;-60
2023/07/20 05:24:42;;;;;;;9.70;8.70;;;;;;;15.58;100.00;101356.56;5009031;28;20034;-60
2023/07/20 05:27:07;;;;;;;10.25;9.25;;;;;;;15.61;100.00;101357.50;5007278;28;20288;-60
2023/07/20 05:29:33;;;;;;;10.43;8.73;;;;;;;15.68;100.00;101360.25;5008410;28;20519;-60
2023/07/20 05:31:58;;;;;;;9.68;8.77;;;;;;;15.74;100.00;101368.19;5008631;28;20052;-60
2023/07/20 05:34:23;;;;;;;9.82;8.93;;;;;;;15.79;100.00;101371.78;5007709;28;20402;-61
2023/07/20 05:36:49;;;;;;;9.68;8.88;;;;;;;15.87;100.00;101368.41;5002053;28;20038;-59
2023/07/20 05:39:16;;;;;;;10.70;9.77;;;;;;;15.91;100.00;101378.06;5004219;28;20036;-59
2023/07/20 05:41:42;;;;;;;10.95;9.95;;;;;;;15.96;100.00;101381.66;4996116;28;20046;-60
2023/07/20 05:44:07;;;;;;;9.73;8.93;;;;;;;16.02;100.00;101379.19;5009283;28;20517;-60
2023/07/20 05:46:32;;;;;;;10.05;9.15;;;;;;;16.07;100.00;101377.53;5008401;28;20034;-61
2023/07/20 05:48:58;;;;;;;9.63;8.27;;;;;;;16.18;100.00;101384.69;5009028;28;20029;-60
2023/07/20 05:51:23;;;;;;;9.88;8.93;;;;;;;16.29;100.00;101384.88;5009542;28;20193;-60
2023/07/20 05:53:48;;;;;;;8.93;8.15;;;;;;;16.39;100.00;101391.13;5005487;28;20014;-60
2023/07/20 05:56:14;;;;;;;8.73;7.93;;;;;;;16.47;100.00;101392.16;4989520;28;20030;-61
2023/07/20 05:58:39;;;;;;;8.20;7.40;;;;;;;16.55;100.00;101387.91;4993260;28;20030;-59
2023/07/20 06:01:07;;;;;;;8.77;7.90;;;;;;;16.66;100.00;101392.41;4996141;28;20474;-60
2023/07/20 06:03:37;;;;;;;8.45;7.65;;;;;;;16.68;100.00;101385.47;4994771;28;20645;-60
2023/07/20 06:06:04;;;;;;;7.40;6.70;;;;;;;16.76;100.00;101393.47;5000532;28;20037;-60
2023/07/20 06:08:32;;;;;;;6.07;5.57;;;;;;;16.85;100.00;101392.72;4996985;28;20474;-60
2023/07/20 06:10:57;;;;;;;6.57;5.72;;;;;;;16.93;100.00;101391.97;4996080;28;20041;-60
2023/07/20 06:13:24;;;;;;;5.63;5.22;;;;;;;17.02;100.00;101395.56;4992324;28;20414;-59
2023/07/20 06:15:49;;;;;;;6.00;5.40;;;;;;;17.05;100.00;101399.09;4994791;28;20062;-60
2023/07/20 06:18:15;;;;;;;7.75;6.22;;;;;;;17.03;100.00;101398.22;4995959;28;20459;-61
2023/07/20 06:20:40;;;;;;;6.22;5.68;;;;;;;16.98;100.00;101397.25;4997747;28;20065;-60
2023/07/20 06:23:05;;;;;;;7.32;6.28;;;;;;;16.94;100.00;101408.56;5004397;28;20080;-60
2023/07/20 06:25:31;;;;;;;6.93;6.25;;;;;;;16.85;100.00;101403.19;4998813;28;20026;-60
2023/07/20 06:27:56;;;;;;;6.55;5.95;;;;;;;16.77;100.00;101408.28;4996087;28;20371;-60
2023/07/20 06:30:22;;;;;;;6.28;5.57;;;;;;;16.70;100.00;101404.72;4993465;28;20033;-60
2023/07/20 06:32:48;;;;;;;6.10;5.50;;;;;;;16.60;100.00;101408.94;5003390;28;20048;-59
2023/07/20 06:35:14;;;;;;;5.57;4.82;;;;;;;16.52;100.00;101406.19;4999868;28;20030;-61
2023/07/20 06:37:39;;;;;;;5.40;4.90;;;;;;;16.53;100.00;101400.06;4994807;28;20057;-60
2023/07/20 06:40:08;;;;;;;6.45;5.85;;;;;;;16.66;100.00;101402.88;5001171;28;20062;-60
2023/07/20 06:42:34;;;;;;;6.32;5.70;;;;;;;16.76;100.00;101398.69;5006017;28;20050;-60
2023/07/20 06:44:59;;;;;;;6.85;6.10;;;;;;;16.79;100.00;101396.13;5001969;28;20034;-60
2023/07/20 06:47:24;;;;;;;6.07;5.30;;;;;;;16.82;100.00;101408.38;5002966;28;20080;-59
2023/07/20 06:49:50;;;;;;;7.35;5.38;;;;;;;16.91;100.00;101408.50;4997270;28;20375;-61
2023/07/20 06:52:15;;;;;;;6.50;6.00;;;;;;;17.13;100.00;101398.34;5007165;28;20020;-60
2023/07/20 06:54:40;;;;;;;5.60;5.10;;;;;;;17.43;100.00;101399.59;5007916;28;20088;-60
2023/07/20 06:57:06;;;;;;;6.35;5.25;;;;;;;17.74;100.00;101402.59;5007026;28;20418;-59
2023/07/20 06:59:31;;;;;;;5.10;4.70;;;;;;;18.10;100.00;101402.06;4993050;28;20019;-60
2023/07/20 07:01:56;;;;;;;4.68;3.95;;;;;;;18.42;100.00;101392.78;4995192;28;20025;-60
2023/07/20 07:04:21;;;;;;;6.50;4.75;;;;;;;18.58;100.00;101401.66;4993032;28;20022;-60
2023/07/20 07:06:47;;;;;;;4.60;4.30;;;;;;;18.78;100.00;101404.41;4995645;28;20367;-60
2023/07/20 07:09:13;;;;;;;4.25;3.85;;;;;;;19.06;100.00;101403.69;4995753;28;20022;-60
2023/07/20 07:11:38;;;;;;;5.32;4.43;;;;;;;19.23;100.00;101411.69;5003362;28;20500;-60
2023/07/20 07:14:03;;;;;;;4.78;4.32;;;;;;;19.30;100.00;101416.09;4999836;28;20026;-60
2023/07/20 07:16:29;;;;;;;4.00;3.70;;;;;;;19.50;100.00;101419.72;4997893;28;20331;-59
2023/07/20 07:18:54;;;;;;;3.53;3.22;;;;;;;19.68;100.00;101413.59;4996646;28;20421;-61
2023/07/20 07:21:20;;;;;;;4.10;3.80;;;;;;;19.94;100.00;101418.06;4994663;28;20084;-60
2023/07/20 07:23:46;;;;;;;5.63;5.13;;;;;;;19.92;96.96;101417.19;4992787;28;20085;-60
2023/07/20 07:26:11;;;;;;;4.28;3.97;;;;;;;19.76;98.58;101422.41;4995488;28;20380;-59
2023/07/20 07:28:37;;;;;;;3.22;3.03;;;;;;;19.49;99.52;101417.94;4997741;28;20026;-61
2023/07/20 07:31:05;;;;;;;3.00;2.80;;;;;;;19.26;100.00;101416.09;4999936;28;20044;-61
2023/07/20 07:33:30;;;;;;;3.65;3.35;;;;;;;19.05;100.00;101412.47;5001048;28;20026;-60
2023/07/20 07:35:56;;;;;;;5.55;4.38;;;;;;;19.02;100.00;101409.78;5002750;28;20037;-60
2023/07/20 07:38:22;;;;;;;3.80;3.38;;;;;;;19.26;100.00;101416.97;5000842;28;20034;-60
2023/07/20 07:40:47;;;;;;;2.38;2.17;;;;;;;19.57;100.00;101421.50;5006025;28;20092;-60
2023/07/20 07:43:15;;;;;;;2.90;2.40;;;;;;;19.88;97.94;101416.31;5002908;28;20034;-59
2023/07/20 07:45:41;;;;;;;1.95;1.80;;;;;;;20.22;100.00;101420.75;5002287;28;20025;-59
2023/07/20 07:48:06;;;;;;;2.50;2.30;;;;;;;20.49;92.53;101423.44;5002498;28;20389;-60
2023/07/20 07:50:33;;;;;;;2.05;1.90;;;;;;;20.70;91.58;101427.78;5001914;28;20558;-60
2023/07/20 07:52:58;;;;;;;2.67;1.98;;;;;;;20.92;90.13;101427.72;5000017;28;20026;-60
2023/07/20 07:55:26;;;;;;;3.22;1.60;;;;;;;21.07;88.31;101423.34;5002358;28;20371;-59
2023/07/20 07:57:52;;;;;;;2.72;1.45;;;;;;;21.18;84.38;101429.47;5007233;28;20034;-60
2023/07/20 08:00:18;;;;;;;1.58;1.10;;;;;;;21.16;83.34;101430.34;4994988;28;20431;-59
2023/07/20 08:02:44;;;;;;;3.35;2.05;;;;;;;21.26;83.11;101433.84;4990289;28;20061;-59
2023/07/20 08:05:10;;;;;;;1.45;1.30;;;;;;;21.41;84.64;101436.41;4996269;28;20204;-60
2023/07/20 08:07:36;;;;;;;2.40;1.98;;;;;;;21.59;82.18;101439.84;5002565;28;20041;-61
2023/07/20 08:10:01;;;;;;;1.98;1.85;;;;;;;21.88;81.93;101436.22;4999075;28;20145;-60
2023/07/20 08:12:27;;;;;;;1.52;1.42;;;;;;;21.99;74.78;101443.19;5004331;28;20169;-60
2023/07/20 08:14:52;;;;;;;1.80;1.63;;;;;;;22.17;75.53;101437.78;5002357;28;20428;-60
2023/07/20 08:17:17;;;;;;;4.60;2.20;;;;;;;21.98;73.64;101442.31;4997788;28;20040;-60
2023/07/20 08:19:44;;;;;;;2.38;2.03;;;;;;;21.57;76.32;101441.59;4998993;28;20022;-60
2023/07/20 08:22:09;;;;;;;1.98;1.85;;;;;;;21.22;78.71;101444.41;4997935;28;20026;-60
2023/07/20 08:24:35;;;;;;;3.55;2.13;;;;;;;20.79;81.13;101449.72;4999292;28;20026;-61
2023/07/20 08:27:00;;;;;;;1.85;1.63;;;;;;;20.42;84.01;101455.88;5004961;28;20022;-61
2023/07/20 08:29:26;;;;;;;2.08;1.88;;;;;;;20.20;85.79;101453.22;5003072;28;20133;-60
2023/07/20 08:31:51;;;;;;;3.88;2.30;;;;;;;20.02;86.43;101449.66;5002298;28;20347;-60
2023/07/20 08:34:16;;;;;;;1.45;1.35;;;;;;;19.89;88.16;101448.75;5002966;28;20022;-60
2023/07/20 08:36:42;;;;;;;2.17;1.60;;;;;;;19.76;87.67;101453.97;5009635;28;20398;-60
2023/07/20 08:39:07;;;;;;;2.17;1.55;;;;;;;19.81;88.55;101448.72;5009614;28;20109;-60
2023/07/20 08:41:34;;;;;;;2.20;1.10;;;;;;;20.16;88.72;101441.81;5002730;28;20112;-61
2023/07/20 08:44:01;;;;;;;1.85;1.17;;;;;;;20.56;87.02;101440.94;5008825;28;20033;-59
2023/07/20 08:46:28;;;;;;;1.42;1.20;;;;;;;20.98;83.39;101438.31;5009334;28;20474;-60
2023/07/20 08:48:54;;;;;;;3.08;1.80;;;;;;;21.27;78.59;101427.69;5008385;28;20072;-61
2023/07/20 08:51:21;;;;;;;1.67;1.33;;;;;;;21.34;75.82;101430.28;5003169;28;20779;-60
2023/07/20 08:53:47;;;;;;;4.00;1.17;;;;;;;21.46;75.63;101433.78;5009230;28;20108;-61
2023/07/20 08:56:14;;;;;;;1.38;1.13;;;;;;;21.51;73.19;101437.28;5009664;28;20477;-60
2023/07/20 08:58:41;;;;;;;1.48;1.10;;;;;;;21.75;75.76;101440.66;5004664;28;20030;-59
2023/07/20 09:01:07;;;;;;;0.80;0.80;;;;;;;21.67;71.51;101442.47;5006509;28;20042;-59
2023/07/20 09:03:33;;;;;;;0.90;0.57;;;;;;;21.48;71.90;101438.16;5006540;28;20038;-61
2023/07/20 09:05:58;;;;;;;1.00;0.47;;;;;;;21.75;71.99;101430.09;4994191;28;20023;-61
2023/07/20 09:08:24;;;;;;;0.80;0.77;;;;;;;21.97;68.18;101440.56;5006328;28;20069;-60
2023/07/20 09:10:49;;;;;;;0.98;0.80;;;;;;;22.05;69.18;101433.50;5009545;28;20068;-60
2023/07/20 09:13:15;;;;;;;0.75;0.60;;;;;;;22.22;68.42;101429.81;5007496;28;20136;-60
2023/07/20 09:15:46;;;;;;;0.70;0.40;;;;;;;22.15;68.71;101431.66;5008490;28;20033;-60
2023/07/20 09:18:12;;;;;;;1.20;0.70;;;;;;;22.03;67.55;101429.97;5008207;28;20033;-60
2023/07/20 09:20:38;;;;;;;0.98;0.50;;;;;;;21.90;66.48;101433.56;5008666;28;20474;-61
2023/07/20 09:23:06;;;;;;;1.25;0.65;;;;;;;21.59;67.57;101432.81;5004262;28;20038;-60
2023/07/20 09:25:32;;;;;;;0.85;0.60;;;;;;;21.37;68.35;101428.53;5005421;28;20176;-60
2023/07/20 09:28:02;;;;;;;2.30;0.50;;;;;;;21.15;71.29;101423.34;5004786;28;20495;-61
2023/07/20 09:30:27;;;;;;;1.55;0.52;;;;;;;21.05;71.73;101428.63;5005703;28;20029;-60
2023/07/20 09:32:53;;;;;;;0.88;0.50;;;;;;;20.97;73.69;101431.28;5006976;28;20048;-61
2023/07/20 09:35:21;;;;;;;1.48;0.50;;;;;;;20.91;71.33;101425.09;5004786;28;20099;-60
2023/07/20 09:37:59;;;;;;;1.20;1.10;;;;;;;20.79;74.84;101415.47;5003308;28;20075;-60
2023/07/20 09:40:26;;;;;;;2.58;2.08;;;;;;;20.74;77.32;101416.34;5005023;28;20021;-60
2023/07/20 09:43:00;;;;;;;2.03;1.60;;;;;;;20.71;77.15;101426.91;4998781;28;20325;-61
2023/07/20 09:45:36;;;;;;;2.63;1.40;;;;;;;20.56;77.39;101419.88;4989663;28;20022;-59
2023/07/20 09:48:09;;;;;;;2.72;2.38;;;;;;;20.40;77.11;101425.16;4993690;28;20034;-60
2023/07/20 09:50:42;;;;;;;2.25;1.95;;;;;;;20.27;77.53;101423.41;5000252;28;20084;-60
2023/07/20 09:53:09;;;;;;;1.33;1.23;;;;;;;20.18;78.98;101424.28;5008675;28;20030;-60
2023/07/20 09:55:35;;;;;;;1.48;1.05;;;;;;;20.12;78.15;101414.63;5008156;28;20096;-59
2023/07/20 09:58:00;;;;;;;1.00;0.90;;;;;;;20.25;79.79;101414.66;5008634;28;20364;-59
2023/07/20 10:00:26;;;;;;;1.98;1.13;;;;;;;20.50;76.66;101417.28;4999450;28;20040;-60
2023/07/20 10:02:52;;;;;;;1.90;1.50;;;;;;;20.81;77.27;101414.63;4992976;28;20034;-60
2023/07/20 10:05:18;;;;;;;1.25;1.15;;;;;;;21.15;76.13;101412.78;5008811;28;20022;-60
2023/07/20 10:07:49;;;;;;;0.95;0.88;;;;;;;21.55;73.62;101412.63;5008286;28;20026;-60
2023/07/20 10:10:19;;;;;;;0.88;0.40;;;;;;;21.91;70.37;101415.09;5008195;28;20578;-60
2023/07/20 10:12:48;;;;;;;0.50;0.30;;;;;;;22.10;65.41;101409.69;5003824;28;20026;-60
2023/07/20 10:15:34;;;;;;;1.02;0.40;;;;;;;22.20;64.54;101413.13;5004244;28;20032;-60
2023/07/20 10:18:08;;;;;;;0.68;0.60;;;;;;;22.39;65.65;101405.06;5002061;28;20044;-60
2023/07/20 10:20:36;;;;;;;1.20;0.70;;;;;;;22.52;64.82;101409.34;5005905;28;20033;-60
2023/07/20 10:23:02;;;;;;;1.23;0.47;;;;;;;22.62;61.40;101396.06;5002579;28;20437;-61
2023/07/20 10:25:28;;;;;;;0.55;0.52;;;;;;;22.68;63.45;101406.59;5005495;28;20072;-62
2023/07/20 10:27:54;;;;;;;0.85;0.50;;;;;;;22.57;64.32;101401.38;5004551;28;20026;-61
2023/07/20 10:30:20;;;;;;;0.98;0.70;;;;;;;22.45;65.02;101399.72;5001663;28;20026;-60
2023/07/20 10:32:47;;;;;;;1.17;0.40;;;;;;;22.27;64.43;101404.28;5002276;28;20025;-60
2023/07/20 10:35:14;;;;;;;0.65;0.50;;;;;;;22.33;66.42;101397.19;5002149;28;20459;-59
2023/07/20 10:37:54;;;;;;;0.55;0.40;;;;;;;22.48;66.53;101398.84;5006715;28;20065;-60
2023/07/20 10:40:33;;;;;;;2.33;0.50;;;;;;;22.56;64.11;101391.69;5008178;28;20026;-61
2023/07/20 10:42:59;;;;;;;0.50;0.50;;;;;;;22.65;62.06;101386.38;4997387;28;20153;-60
2023/07/20 10:45:49;;;;;;;0.77;0.50;;;;;;;22.62;59.97;101391.69;5007754;28;20458;-61
2023/07/20 10:48:16;;;;;;;0.53;0.40;;;;;;;22.52;62.33;101387.38;4994577;28;20038;-61
2023/07/20 10:50:42;;;;;;;1.48;0.55;;;;;;;22.47;61.59;101382.09;4999693;28;20065;-60
2023/07/20 10:53:18;;;;;;;1.35;0.63;;;;;;;22.62;63.24;101380.22;5007499;28;20018;-60
2023/07/20 10:55:44;;;;;;;1.10;0.70;;;;;;;22.69;61.11;101375.75;5005582;28;20053;-61
2023/07/20 10:58:12;;;;;;;0.75;0.30;;;;;;;22.62;59.62;101374.94;5008368;28;20036;-60
2023/07/20 11:00:38;;;;;;;0.90;0.40;;;;;;;22.74;62.12;101380.13;5006617;28;20064;-61
2023/07/20 11:03:04;;;;;;;1.30;0.68;;;;;;;23.01;63.91;101372.78;5004078;28;20026;-61
2023/07/20 11:05:35;;;;;;;0.38;0.38;;;;;;;23.37;61.72;101369.69;5005372;28;20113;-62
2023/07/20 11:08:04;;;;;;;0.80;0.52;;;;;;;23.71;59.99;101381.59;4999952;28;20076;-61
2023/07/20 11:10:29;;;;;;;0.40;0.40;;;;;;;24.02;59.38;101371.41;5000394;28;20050;-60
2023/07/20 11:13:17;;;;;;;0.70;0.43;;;;;;;23.92;51.79;101374.22;4994962;28;20150;-60
2023/07/20 11:15:47;;;;;;;0.80;0.60;;;;;;;23.66;53.27;101375.50;5002673;28;20061;-61